Time,TemperatureF,DewpointF,PressureIn,WindDirection,WindDirectionDegrees,WindSpeedMPH,WindSpeedGustMPH,Humidity,HourlyPrecipIn,Conditions,Clouds,dailyrainin,SolarRadiationWatts/m^2,SoftwareType,DateUTC
2013-04-02 00:01:00,57.5,40.5,29.93,NE,37,2.0,5.0,53,0.00,SCT,,0.11,0.0,WeatherDisplay:10.37,2013-04-02 04:01:00,
2013-04-02 00:11:00,57.3,40.3,29.94,NNE,26,2.0,3.0,53,0.00,SCT,,0.11,0.0,WeatherDisplay:10.37,2013-04-02 04:11:00,
2013-04-02 00:16:00,57.2,39.2,29.95,NNE,16,3.0,8.0,51,0.00,SCT,,0.11,0.0,WeatherDisplay:10.37,2013-04-02 04:16:00,
2013-04-02 00:21:00,56.7,38.3,29.95,NNE,23,3.0,7.0,50,0.00,SCT,,0.11,0.0,WeatherDisplay:10.37,2013-04-02 04:21:00,
2013-04-02 00:26:00,56.4,38.0,29.96,NNE,15,3.0,9.0,50,0.00,SCT,,0.11,0.0,WeatherDisplay:10.37,2013-04-02 04:26:00,
2013-04-02 00:31:00,55.9,37.0,29.97,NNE,19,5.0,9.0,49,0.00,SCT,,0.11,0.0,WeatherDisplay:10.37,2013-04-02 04:31:00,
2013-04-02 00:41:00,54.7,36.9,29.97,NNE,19,6.0,9.0,51,0.00,SCT,,0.11,0.0,WeatherDisplay:10.37,2013-04-02 04:41:00,
2013-04-02 00:46:00,54.1,37.3,29.98,North,9,3.0,8.0,53,0.00,SCT,,0.11,0.0,WeatherDisplay:10.37,2013-04-02 04:46:00,
2013-04-02 00:51:00,53.5,37.3,29.98,North,9,3.0,8.0,54,0.00,SCT,,0.11,0.0,WeatherDisplay:10.37,2013-04-02 04:51:00,
2013-04-02 00:56:00,53.0,36.8,29.98,NNE,14,3.0,7.0,54,0.00,SCT,,0.11,0.0,WeatherDisplay:10.37,2013-04-02 04:56:00,
2013-04-02 01:06:00,52.2,36.0,29.99,North,5,3.0,6.0,54,0.00,BKN,,0.00,0.0,WeatherDisplay:10.37,2013-04-02 05:06:00,
2013-04-02 01:11:00,51.8,35.7,30.00,North,9,3.0,10.0,54,0.00,BKN,,0.00,0.0,WeatherDisplay:10.37,2013-04-02 05:11:00,
2013-04-02 01:16:00,51.5,35.4,30.00,North,1,3.0,7.0,54,0.00,BKN,,0.00,0.0,WeatherDisplay:10.37,2013-04-02 05:16:00,
2013-04-02 01:21:00,51.1,34.6,30.00,North,5,2.0,6.0,53,0.00,BKN,,0.00,0.0,WeatherDisplay:10.37,2013-04-02 05:21:00,
2013-04-02 01:26:00,51.0,34.9,30.00,North,10,3.0,7.0,54,0.00,BKN,,0.00,0.0,WeatherDisplay:10.37,2013-04-02 05:26:00,
2013-04-02 01:31:00,50.7,34.6,30.00,North,7,2.0,6.0,54,0.00,BKN,,0.00,0.0,WeatherDisplay:10.37,2013-04-02 05:31:00,
2013-04-02 01:36:00,50.5,34.0,30.00,NNE,13,2.0,7.0,53,0.00,BKN,,0.00,0.0,WeatherDisplay:10.37,2013-04-02 05:36:00,
2013-04-02 01:41:00,50.4,33.9,30.00,NNE,16,1.0,6.0,53,0.00,BKN,,0.00,0.0,WeatherDisplay:10.37,2013-04-02 05:41:00,
2013-04-02 01:46:00,50.1,34.1,30.00,NNE,16,1.0,6.0,54,0.00,BKN,,0.00,0.0,WeatherDisplay:10.37,2013-04-02 05:46:00,
2013-04-02 01:56:00,49.8,34.3,30.01,NNE,19,3.0,6.0,55,0.00,BKN,,0.00,0.0,WeatherDisplay:10.37,2013-04-02 05:56:00,
2013-04-02 02:21:00,48.9,32.5,30.01,North,10,2.0,5.0,53,0.00,FEW,,0.00,0.0,WeatherDisplay:10.37,2013-04-02 06:21:00,
2013-04-02 02:31:00,48.6,32.7,30.01,North,11,0.0,2.0,54,0.00,FEW,,0.00,0.0,WeatherDisplay:10.37,2013-04-02 06:31:00,
2013-04-02 02:36:00,48.4,32.5,30.01,NNE,12,1.0,5.0,54,0.00,FEW,,0.00,0.0,WeatherDisplay:10.37,2013-04-02 06:36:00,
2013-04-02 02:41:00,48.3,32.8,30.01,North,8,0.0,3.0,55,0.00,FEW,,0.00,0.0,WeatherDisplay:10.37,2013-04-02 06:41:00,
2013-04-02 02:46:00,48.0,31.7,30.01,NNE,13,1.0,3.0,53,0.00,FEW,,0.00,0.0,WeatherDisplay:10.37,2013-04-02 06:46:00,
2013-04-02 02:56:00,47.7,31.9,30.01,NNE,14,1.0,3.0,54,0.00,FEW,,0.00,0.0,WeatherDisplay:10.37,2013-04-02 06:56:00,
2013-04-02 03:01:00,47.6,31.3,30.01,NNE,15,1.0,3.0,53,0.00,FEW,,0.00,0.0,WeatherDisplay:10.37,2013-04-02 07:01:00,
2013-04-02 03:16:00,47.1,30.4,30.01,NNE,13,5.0,7.0,52,0.00,FEW,,0.00,0.0,WeatherDisplay:10.37,2013-04-02 07:16:00,
2013-04-02 03:26:00,47.0,30.3,30.01,North,8,1.0,5.0,52,0.00,FEW,,0.00,0.0,WeatherDisplay:10.37,2013-04-02 07:26:00,
2013-04-02 03:31:00,46.9,30.6,30.01,NNE,20,0.0,2.0,53,0.00,FEW,,0.00,0.0,WeatherDisplay:10.37,2013-04-02 07:31:00,
2013-04-02 03:41:00,46.7,30.9,30.01,NNE,17,0.0,2.0,54,0.00,FEW,,0.00,0.0,WeatherDisplay:10.37,2013-04-02 07:41:00,
2013-04-02 04:01:00,46.0,31.2,30.01,NNE,17,0.0,2.0,56,0.00,FEW,,0.00,0.0,WeatherDisplay:10.37,2013-04-02 08:01:00,
2013-04-02 04:11:00,45.7,30.9,30.02,NNE,16,0.0,0.0,56,0.00,FEW,,0.00,0.0,WeatherDisplay:10.37,2013-04-02 08:11:00,
2013-04-02 04:16:00,45.4,30.2,30.02,NNE,16,1.0,3.0,55,0.00,FEW,,0.00,0.0,WeatherDisplay:10.37,2013-04-02 08:16:00,
2013-04-02 04:26:00,45.2,30.0,30.02,NNE,15,0.0,2.0,55,0.00,FEW,,0.00,0.0,WeatherDisplay:10.37,2013-04-02 08:26:00,
2013-04-02 04:31:00,45.1,29.9,30.02,NNE,15,0.0,1.0,55,0.00,FEW,,0.00,0.0,WeatherDisplay:10.37,2013-04-02 08:31:00,
2013-04-02 04:36:00,45.1,30.3,30.02,NNE,15,0.0,1.0,56,0.00,FEW,,0.00,0.0,WeatherDisplay:10.37,2013-04-02 08:36:00,
2013-04-02 04:46:00,44.8,30.5,30.03,NNE,15,0.0,0.0,57,0.00,FEW,,0.00,0.0,WeatherDisplay:10.37,2013-04-02 08:46:00,
2013-04-02 04:56:00,44.5,31.1,30.03,NNE,15,0.0,0.0,59,0.00,FEW,,0.00,0.0,WeatherDisplay:10.37,2013-04-02 08:56:00,
2013-04-02 05:11:00,44.1,30.3,30.03,NNE,15,0.0,0.0,58,0.00,FEW,,0.00,0.0,WeatherDisplay:10.37,2013-04-02 09:11:00,
2013-04-02 05:21:00,43.8,30.8,30.04,NNE,15,0.0,0.0,60,0.00,FEW,,0.00,0.0,WeatherDisplay:10.37,2013-04-02 09:21:00,
2013-04-02 05:31:00,43.5,30.5,30.05,NNE,15,0.0,0.0,60,0.00,FEW,,0.00,0.0,WeatherDisplay:10.37,2013-04-02 09:31:00,
2013-04-02 05:36:00,43.3,29.9,30.05,NNE,15,0.0,0.0,59,0.00,FEW,,0.00,0.0,WeatherDisplay:10.37,2013-04-02 09:36:00,
2013-04-02 05:41:00,43.2,30.2,30.05,NNE,15,0.0,0.0,60,0.00,FEW,,0.00,0.0,WeatherDisplay:10.37,2013-04-02 09:41:00,
2013-04-02 05:46:00,43.1,29.7,30.05,NNE,15,0.0,0.0,59,0.00,FEW,,0.00,0.0,WeatherDisplay:10.37,2013-04-02 09:46:00,
2013-04-02 06:21:00,42.3,29.0,30.06,NNE,15,0.0,2.0,59,0.00,CLR,,0.00,0.0,WeatherDisplay:10.37,2013-04-02 10:21:00,
2013-04-02 06:31:00,42.2,29.3,30.07,NNE,15,0.0,1.0,60,0.00,CLR,,0.00,0.0,WeatherDisplay:10.37,2013-04-02 10:31:00,
2013-04-02 06:46:00,41.9,29.0,30.08,NNE,15,0.0,0.0,60,0.00,CLR,,0.00,0.0,WeatherDisplay:10.37,2013-04-02 10:46:00,
2013-04-02 06:56:00,41.8,29.3,30.08,NNE,15,0.0,0.0,61,0.00,CLR,,0.00,0.0,WeatherDisplay:10.37,2013-04-02 10:56:00,
2013-04-02 07:06:00,41.6,29.5,30.09,NNE,15,0.0,0.0,62,0.00,CLR,,0.00,5.8,WeatherDisplay:10.37,2013-04-02 11:06:00,
2013-04-02 07:16:00,41.3,29.3,30.09,NNE,15,0.0,0.0,62,0.00,CLR,,0.00,12.6,WeatherDisplay:10.37,2013-04-02 11:16:00,
2013-04-02 07:21:00,41.2,29.5,30.10,NNE,15,0.0,0.0,63,0.00,CLR,,0.00,13.8,WeatherDisplay:10.37,2013-04-02 11:21:00,
2013-04-02 07:36:00,40.8,30.0,30.10,NNE,15,0.0,0.0,65,0.00,CLR,,0.00,21.8,WeatherDisplay:10.37,2013-04-02 11:36:00,
2013-04-02 07:41:00,40.8,29.9,30.11,NNE,15,0.0,0.0,65,0.00,CLR,,0.00,24.2,WeatherDisplay:10.37,2013-04-02 11:41:00,
2013-04-02 07:46:00,40.6,29.7,30.11,NNE,15,0.0,0.0,65,0.00,CLR,,0.00,28.7,WeatherDisplay:10.37,2013-04-02 11:46:00,
2013-04-02 07:51:00,40.6,30.1,30.11,NNE,15,0.0,0.0,66,0.00,CLR,,0.00,29.9,WeatherDisplay:10.37,2013-04-02 11:51:00,
2013-04-02 08:01:00,40.6,30.5,30.12,NNE,15,0.0,0.0,67,0.00,CLR,,0.00,34.5,WeatherDisplay:10.37,2013-04-02 12:01:00,
2013-04-02 08:16:00,40.9,30.0,30.13,NNE,15,0.0,0.0,65,0.00,CLR,,0.00,40.3,WeatherDisplay:10.37,2013-04-02 12:16:00,
2013-04-02 08:36:00,42.3,29.4,30.13,NNE,15,0.0,2.0,60,0.00,CLR,,0.00,46.0,WeatherDisplay:10.37,2013-04-02 12:36:00,
2013-04-02 08:46:00,43.3,29.0,30.13,NNE,14,0.0,1.0,57,0.00,CLR,,0.00,48.3,WeatherDisplay:10.37,2013-04-02 12:46:00,
2013-04-02 08:56:00,44.2,29.0,30.13,NNE,16,0.0,2.0,55,0.00,CLR,,0.00,50.6,WeatherDisplay:10.37,2013-04-02 12:56:00,
2013-04-02 09:06:00,45.1,29.0,30.13,NNE,15,0.0,3.0,53,0.00,CLR,,0.00,54.0,WeatherDisplay:10.37,2013-04-02 13:06:00,
2013-04-02 09:16:00,45.9,28.3,30.13,North,7,2.0,6.0,50,0.00,CLR,,0.00,98.9,WeatherDisplay:10.37,2013-04-02 13:16:00,
2013-04-02 09:26:00,46.7,29.0,30.13,NNE,18,2.0,3.0,50,0.00,CLR,,0.00,109.2,WeatherDisplay:10.37,2013-04-02 13:26:00,
2013-04-02 09:31:00,47.0,28.8,30.13,NNE,19,0.0,3.0,49,0.00,CLR,,0.00,119.6,WeatherDisplay:10.37,2013-04-02 13:31:00,
2013-04-02 09:41:00,47.7,27.4,30.13,NNE,23,2.0,5.0,45,0.00,CLR,,0.00,143.8,WeatherDisplay:10.37,2013-04-02 13:41:00,
2013-04-02 09:51:00,48.4,26.9,30.13,NNE,17,3.0,6.0,43,0.00,CLR,,0.00,96.6,WeatherDisplay:10.37,2013-04-02 13:51:00,
2013-04-02 09:56:00,48.8,27.8,30.13,NNE,19,2.0,3.0,44,0.00,CLR,,0.00,151.8,WeatherDisplay:10.37,2013-04-02 13:56:00,
2013-04-02 10:11:00,49.5,26.7,30.13,North,7,1.0,7.0,41,0.00,FEW,,0.00,588.8,WeatherDisplay:10.37,2013-04-02 14:11:00,
2013-04-02 10:16:00,49.8,27.6,30.13,North,2,3.0,8.0,42,0.00,FEW,,0.00,647.4,WeatherDisplay:10.37,2013-04-02 14:16:00,
2013-04-02 10:26:00,50.8,29.1,30.13,NNE,19,1.0,6.0,43,0.00,FEW,,0.00,685.4,WeatherDisplay:10.37,2013-04-02 14:26:00,
2013-04-02 10:36:00,51.8,28.8,30.13,NNE,14,1.0,4.0,41,0.00,FEW,,0.00,722.2,WeatherDisplay:10.37,2013-04-02 14:36:00,
2013-04-02 10:46:00,52.6,28.9,30.13,North,5,2.0,8.0,40,0.00,FEW,,0.00,757.8,WeatherDisplay:10.37,2013-04-02 14:46:00,
2013-04-02 10:51:00,52.7,26.5,30.13,North,2,1.0,6.0,36,0.00,FEW,,0.00,771.7,WeatherDisplay:10.37,2013-04-02 14:51:00,
2013-04-02 10:56:00,52.9,26.7,30.13,NNW,348,1.0,5.0,36,0.00,FEW,,0.00,784.3,WeatherDisplay:10.37,2013-04-02 14:56:00,
2013-04-02 11:06:00,53.2,28.2,30.13,North,10,1.0,9.0,38,0.00,FEW,,0.00,816.5,WeatherDisplay:10.37,2013-04-02 15:06:00,
2013-04-02 11:11:00,53.6,29.8,30.13,North,5,1.0,5.0,40,0.00,FEW,,0.00,830.3,WeatherDisplay:10.37,2013-04-02 15:11:00,
2013-04-02 11:16:00,53.9,26.8,30.13,North,355,2.0,5.0,35,0.00,FEW,,0.00,848.7,WeatherDisplay:10.37,2013-04-02 15:16:00,
2013-04-02 11:21:00,54.4,28.0,30.13,North,356,3.0,6.0,36,0.00,FEW,,0.00,863.7,WeatherDisplay:10.37,2013-04-02 15:21:00,
2013-04-02 11:31:00,54.4,27.3,30.13,ESE,109,0.0,2.0,35,0.00,FEW,,0.00,887.8,WeatherDisplay:10.37,2013-04-02 15:31:00,
2013-04-02 12:06:00,56.6,29.2,30.13,NW,310,3.0,6.0,35,0.00,FEW,,0.00,962.5,WeatherDisplay:10.37,2013-04-02 16:06:00,
2013-04-02 12:16:00,56.0,26.5,30.13,SW,216,2.0,7.0,32,0.00,FEW,,0.00,981.0,WeatherDisplay:10.37,2013-04-02 16:16:00,
2013-04-02 12:21:00,55.6,26.9,30.12,SSW,195,1.0,5.0,33,0.00,FEW,,0.00,984.4,WeatherDisplay:10.37,2013-04-02 16:21:00,
2013-04-02 12:41:00,58.3,30.1,30.11,WNW,293,2.0,6.0,34,0.00,FEW,,0.00,1006.2,WeatherDisplay:10.37,2013-04-02 16:41:00,
2013-04-02 13:06:00,59.0,29.9,30.10,NNW,332,2.0,6.0,33,0.00,FEW,,0.00,1022.4,WeatherDisplay:10.37,2013-04-02 17:06:00,
2013-04-02 13:11:00,58.6,28.1,30.10,NW,318,0.0,5.0,31,0.00,FEW,,0.00,1021.2,WeatherDisplay:10.37,2013-04-02 17:11:00,
2013-04-02 13:16:00,58.8,29.0,30.10,WNW,301,2.0,5.0,32,0.00,FEW,,0.00,1029.3,WeatherDisplay:10.37,2013-04-02 17:16:00,
2013-04-02 13:26:00,59.1,30.7,30.09,WNW,289,2.0,7.0,34,0.00,FEW,,0.00,1024.6,WeatherDisplay:10.37,2013-04-02 17:26:00,
2013-04-02 13:31:00,59.3,28.6,30.09,NW,322,2.0,6.0,31,0.00,FEW,,0.00,1022.4,WeatherDisplay:10.37,2013-04-02 17:31:00,
2013-04-02 13:51:00,60.7,29.9,30.08,West,275,3.0,7.0,31,0.00,FEW,,0.00,869.4,WeatherDisplay:10.37,2013-04-02 17:51:00,
2013-04-02 14:06:00,60.6,29.0,30.08,NNW,342,5.0,8.0,30,0.00,FEW,,0.00,780.8,WeatherDisplay:10.37,2013-04-02 18:06:00,
2013-04-02 14:11:00,60.8,30.7,30.08,NNW,336,3.0,7.0,32,0.00,FEW,,0.00,802.7,WeatherDisplay:10.37,2013-04-02 18:11:00,
2013-04-02 14:31:00,61.2,31.1,30.07,NNW,337,2.0,8.0,32,0.00,FEW,,0.00,947.6,WeatherDisplay:10.37,2013-04-02 18:31:00,
2013-04-02 14:36:00,61.2,27.8,30.07,WNW,290,3.0,7.0,28,0.00,FEW,,0.00,958.0,WeatherDisplay:10.37,2013-04-02 18:36:00,
2013-04-02 14:41:00,60.4,28.8,30.07,West,262,0.0,7.0,30,0.00,FEW,,0.00,966.0,WeatherDisplay:10.37,2013-04-02 18:41:00,
2013-04-02 14:46:00,60.1,27.7,30.06,SW,232,6.0,12.0,29,0.00,FEW,,0.00,949.9,WeatherDisplay:10.37,2013-04-02 18:46:00,
2013-04-02 14:51:00,60.0,28.5,30.06,SSW,211,1.0,6.0,30,0.00,FEW,,0.00,933.8,WeatherDisplay:10.37,2013-04-02 18:51:00,
2013-04-02 15:16:00,61.6,32.2,30.05,NNE,15,2.0,5.0,33,0.00,FEW,,0.00,880.9,WeatherDisplay:10.37,2013-04-02 19:16:00,
2013-04-02 15:26:00,62.0,29.3,30.05,NW,313,1.0,6.0,29,0.00,FEW,,0.00,863.7,WeatherDisplay:10.37,2013-04-02 19:26:00,
2013-04-02 15:31:00,61.8,28.3,30.05,NW,315,2.0,7.0,28,0.00,FEW,,0.00,856.7,WeatherDisplay:10.37,2013-04-02 19:31:00,
2013-04-02 15:41:00,62.0,28.5,30.05,WNW,285,1.0,5.0,28,0.00,FEW,,0.00,829.1,WeatherDisplay:10.37,2013-04-02 19:41:00,
2013-04-02 15:46:00,61.6,28.2,30.04,WNW,294,2.0,4.0,28,0.00,FEW,,0.00,814.2,WeatherDisplay:10.37,2013-04-02 19:46:00,
2013-04-02 15:51:00,61.5,28.9,30.04,North,350,2.0,8.0,29,0.00,FEW,,0.00,792.3,WeatherDisplay:10.37,2013-04-02 19:51:00,
2013-04-02 15:56:00,61.8,31.6,30.04,NNW,345,2.0,6.0,32,0.00,FEW,,0.00,778.6,WeatherDisplay:10.37,2013-04-02 19:56:00,
2013-04-02 16:11:00,62.1,28.6,30.04,NNE,17,3.0,6.0,28,0.00,SCT,,0.00,402.5,WeatherDisplay:10.37,2013-04-02 20:11:00,
2013-04-02 16:21:00,62.2,28.7,30.04,West,280,2.0,6.0,28,0.00,SCT,,0.00,104.7,WeatherDisplay:10.37,2013-04-02 20:21:00,
2013-04-02 16:36:00,61.8,27.4,30.04,SW,226,3.0,7.0,27,0.00,SCT,,0.00,74.8,WeatherDisplay:10.37,2013-04-02 20:36:00,
2013-04-02 16:41:00,61.6,28.1,30.04,SSW,213,2.0,6.0,28,0.00,SCT,,0.00,82.8,WeatherDisplay:10.37,2013-04-02 20:41:00,
2013-04-02 16:46:00,61.6,28.1,30.04,SW,233,0.0,6.0,28,0.00,SCT,,0.00,96.6,WeatherDisplay:10.37,2013-04-02 20:46:00,
2013-04-02 16:51:00,61.7,29.1,30.03,NNW,347,2.0,5.0,29,0.00,SCT,,0.00,90.8,WeatherDisplay:10.37,2013-04-02 20:51:00,
2013-04-02 16:56:00,61.8,28.3,30.04,NNW,339,2.0,6.0,28,0.00,SCT,,0.00,85.1,WeatherDisplay:10.37,2013-04-02 20:56:00,
2013-04-02 17:11:00,61.6,29.0,30.04,NW,310,2.0,6.0,29,0.00,SCT,,0.00,406.0,WeatherDisplay:10.37,2013-04-02 21:11:00,
2013-04-02 17:21:00,61.6,29.0,30.04,West,270,2.0,5.0,29,0.00,SCT,,0.00,82.8,WeatherDisplay:10.37,2013-04-02 21:21:00,
2013-04-02 17:36:00,61.3,27.9,30.04,SSW,198,1.0,7.0,28,0.00,SCT,,0.00,186.3,WeatherDisplay:10.37,2013-04-02 21:36:00,
2013-04-02 17:56:00,61.3,27.9,30.04,West,265,2.0,5.0,28,0.00,SCT,,0.00,238.0,WeatherDisplay:10.37,2013-04-02 21:56:00,
2013-04-02 18:06:00,61.3,29.6,30.04,WSW,250,1.0,5.0,30,0.00,SCT,,0.00,263.3,WeatherDisplay:10.37,2013-04-02 22:06:00,
2013-04-02 18:16:00,61.2,26.9,30.04,SW,229,1.0,5.0,27,0.00,SCT,,0.00,189.7,WeatherDisplay:10.37,2013-04-02 22:16:00,
2013-04-02 18:21:00,61.2,27.8,30.05,NNW,328,1.0,5.0,28,0.00,SCT,,0.00,131.1,WeatherDisplay:10.37,2013-04-02 22:21:00,
2013-04-02 18:31:00,61.0,29.3,30.05,NNE,18,0.0,1.0,30,0.00,SCT,,0.00,141.4,WeatherDisplay:10.37,2013-04-02 22:31:00,
2013-04-02 18:36:00,60.9,26.7,30.05,NNE,20,0.0,2.0,27,0.00,SCT,,0.00,90.8,WeatherDisplay:10.37,2013-04-02 22:36:00,
2013-04-02 18:41:00,60.7,27.4,30.04,NNE,20,0.0,1.0,28,0.00,SCT,,0.00,56.4,WeatherDisplay:10.37,2013-04-02 22:41:00,
2013-04-02 18:46:00,60.5,28.9,30.05,North,354,0.0,3.0,30,0.00,SCT,,0.00,40.3,WeatherDisplay:10.37,2013-04-02 22:46:00,
2013-04-02 18:51:00,60.4,28.0,30.05,SSE,162,0.0,4.0,29,0.00,SCT,,0.00,40.3,WeatherDisplay:10.37,2013-04-02 22:51:00,
2013-04-02 18:56:00,60.1,26.9,30.05,SE,139,0.0,2.0,28,0.00,SCT,,0.00,50.6,WeatherDisplay:10.37,2013-04-02 22:56:00,
2013-04-02 19:06:00,59.8,28.3,30.05,SE,134,0.0,0.0,30,0.00,SCT,,0.00,32.2,WeatherDisplay:10.37,2013-04-02 23:06:00,
2013-04-02 19:11:00,59.6,28.1,30.05,SE,134,0.0,0.0,30,0.00,SCT,,0.00,26.5,WeatherDisplay:10.37,2013-04-02 23:11:00,
2013-04-02 19:16:00,59.3,27.8,30.05,SE,134,0.0,0.0,30,0.00,SCT,,0.00,20.7,WeatherDisplay:10.37,2013-04-02 23:16:00,
2013-04-02 19:21:00,59.2,28.5,30.06,SE,134,0.0,0.0,31,0.00,SCT,,0.00,16.1,WeatherDisplay:10.37,2013-04-02 23:21:00,
2013-04-02 19:26:00,58.9,27.5,30.05,SE,134,0.0,0.0,30,0.00,SCT,,0.00,13.8,WeatherDisplay:10.37,2013-04-02 23:26:00,
2013-04-02 19:36:00,58.3,30.0,30.05,SE,134,0.0,0.0,34,0.00,SCT,,0.00,0.0,WeatherDisplay:10.37,2013-04-02 23:36:00,
2013-04-02 19:46:00,57.5,30.7,30.06,SE,134,0.0,0.0,36,0.00,SCT,,0.00,0.0,WeatherDisplay:10.37,2013-04-02 23:46:00,
2013-04-02 19:51:00,57.0,30.9,30.06,SE,134,0.0,0.0,37,0.00,SCT,,0.00,0.0,WeatherDisplay:10.37,2013-04-02 23:51:00,
2013-04-02 19:56:00,56.6,32.5,30.06,SE,134,0.0,0.0,40,0.00,SCT,,0.00,0.0,WeatherDisplay:10.37,2013-04-02 23:56:00,
2013-04-02 20:11:00,55.3,33.7,30.07,SE,134,0.0,0.0,44,0.00,SCT,,0.00,0.0,WeatherDisplay:10.37,2013-04-03 00:11:00,
2013-04-02 20:21:00,54.4,36.1,30.07,SE,134,0.0,0.0,50,0.00,SCT,,0.00,0.0,WeatherDisplay:10.37,2013-04-03 00:21:00,
2013-04-02 20:26:00,53.9,35.2,30.07,SE,134,0.0,0.0,49,0.00,SCT,,0.00,0.0,WeatherDisplay:10.37,2013-04-03 00:26:00,
2013-04-02 20:36:00,53.2,35.5,30.07,SE,134,0.0,0.0,51,0.00,SCT,,0.00,0.0,WeatherDisplay:10.37,2013-04-03 00:36:00,
2013-04-02 20:51:00,52.1,36.0,30.07,SE,134,0.0,0.0,54,0.00,SCT,,0.00,0.0,WeatherDisplay:10.37,2013-04-03 00:51:00,
2013-04-02 21:06:00,50.9,35.7,30.07,SE,134,0.0,0.0,56,0.00,SCT,,0.00,0.0,WeatherDisplay:10.37,2013-04-03 01:06:00,
2013-04-02 21:11:00,50.5,35.8,30.07,SE,134,0.0,0.0,57,0.00,SCT,,0.00,0.0,WeatherDisplay:10.37,2013-04-03 01:11:00,
2013-04-02 21:16:00,50.1,35.4,30.07,SE,134,0.0,0.0,57,0.00,SCT,,0.00,0.0,WeatherDisplay:10.37,2013-04-03 01:16:00,
2013-04-02 21:21:00,49.6,35.4,30.08,SE,134,0.0,0.0,58,0.00,SCT,,0.00,0.0,WeatherDisplay:10.37,2013-04-03 01:21:00,
2013-04-02 21:31:00,49.0,35.2,30.09,SE,134,0.0,0.0,59,0.00,SCT,,0.00,0.0,WeatherDisplay:10.37,2013-04-03 01:31:00,
2013-04-02 21:36:00,48.6,35.3,30.09,SE,134,0.0,0.0,60,0.00,SCT,,0.00,0.0,WeatherDisplay:10.37,2013-04-03 01:36:00,
2013-04-02 21:41:00,48.3,35.9,30.09,SE,134,0.0,0.0,62,0.00,SCT,,0.00,0.0,WeatherDisplay:10.37,2013-04-03 01:41:00,
2013-04-02 21:46:00,48.0,35.6,30.09,SE,134,0.0,0.0,62,0.00,SCT,,0.00,0.0,WeatherDisplay:10.37,2013-04-03 01:46:00,
2013-04-02 22:11:00,46.8,36.4,30.09,SE,134,0.0,0.0,67,0.00,SCT,,0.00,0.0,WeatherDisplay:10.37,2013-04-03 02:11:00,
2013-04-02 22:16:00,46.6,36.2,30.09,SE,134,0.0,0.0,67,0.00,SCT,,0.00,0.0,WeatherDisplay:10.37,2013-04-03 02:16:00,
2013-04-02 22:21:00,46.4,36.4,30.09,SE,134,0.0,0.0,68,0.00,SCT,,0.00,0.0,WeatherDisplay:10.37,2013-04-03 02:21:00,
2013-04-02 22:31:00,46.1,36.9,30.09,SE,134,0.0,0.0,70,0.00,SCT,,0.00,0.0,WeatherDisplay:10.37,2013-04-03 02:31:00,
2013-04-02 22:36:00,46.0,36.4,30.09,SE,134,0.0,0.0,69,0.00,SCT,,0.00,0.0,WeatherDisplay:10.37,2013-04-03 02:36:00,
2013-04-02 22:46:00,45.5,35.9,30.10,SE,134,0.0,0.0,69,0.00,SCT,,0.00,0.0,WeatherDisplay:10.37,2013-04-03 02:46:00,
2013-04-02 22:51:00,45.4,36.9,30.09,SE,134,0.0,0.0,72,0.00,SCT,,0.00,0.0,WeatherDisplay:10.37,2013-04-03 02:51:00,
2013-04-02 22:56:00,45.2,36.4,30.09,SE,134,0.0,0.0,71,0.00,SCT,,0.00,0.0,WeatherDisplay:10.37,2013-04-03 02:56:00,
2013-04-02 23:11:00,44.8,35.6,30.10,SE,134,0.0,0.0,70,0.00,SCT,,0.00,0.0,WeatherDisplay:10.37,2013-04-03 03:11:00,
2013-04-02 23:16:00,44.6,35.4,30.10,SE,134,0.0,0.0,70,0.00,SCT,,0.00,0.0,WeatherDisplay:10.37,2013-04-03 03:16:00,
2013-04-02 23:21:00,44.5,34.9,30.10,SE,134,0.0,0.0,69,0.00,SCT,,0.00,0.0,WeatherDisplay:10.37,2013-04-03 03:21:00,
2013-04-02 23:26:00,44.3,34.8,30.10,SE,134,0.0,0.0,69,0.00,SCT,,0.00,0.0,WeatherDisplay:10.37,2013-04-03 03:26:00,
2013-04-02 23:51:00,44.1,36.3,30.10,ENE,58,0.0,0.0,74,0.00,SCT,,0.00,0.0,WeatherDisplay:10.37,2013-04-03 03:51:00,